Time;durP1;ratioP1;P1;durP2;ratioP2;P2;SDS_P1;SDS_P2;PMS_P1;PMS_P2;Temp;Humidity;BMP_temperature;BMP_pressure;BME280_temperature;BME280_humidity;BME280_pressure;Samples;Min_cycle;Max_cycle;Signal;HPM_P1;HPM_P2
2024/01/10 00:01:13;;;;;;;34.85;19.38;;;;;;;-5.32;59.56;99250.94;5040453;28;20469;-74
2024/01/10 00:03:39;;;;;;;31.73;15.82;;;;;;;-5.36;59.46;99273.13;5042964;28;20052;-74
2024/01/10 00:06:04;;;;;;;33.92;21.73;;;;;;;-5.19;58.93;99259.53;5020941;28;20083;-73
2024/01/10 00:08:30;;;;;;;33.03;15.68;;;;;;;-5.18;58.45;99266.47;5024123;28;20504;-72
2024/01/10 00:10:55;;;;;;;23.92;15.50;;;;;;;-5.02;57.81;99256.44;5042673;28;20037;-74
2024/01/10 00:13:21;;;;;;;23.77;12.80;;;;;;;-5.12;57.10;99258.09;5034332;28;20060;-74
2024/01/10 00:15:48;;;;;;;29.13;18.10;;;;;;;-4.85;57.18;99263.78;5050548;28;20036;-74
2024/01/10 00:18:13;;;;;;;27.95;20.70;;;;;;;-4.76;56.93;99257.78;5041134;28;20599;-74
2024/01/10 00:20:39;;;;;;;28.58;13.98;;;;;;;-5.08;56.57;99252.47;5039950;28;20071;-74
2024/01/10 00:23:06;;;;;;;21.90;15.55;;;;;;;-4.90;56.38;99239.66;5022078;28;20040;-74
2024/01/10 00:25:31;;;;;;;23.30;13.85;;;;;;;-4.86;56.10;99233.25;5045635;28;20033;-74
2024/01/10 00:27:57;;;;;;;25.02;12.10;;;;;;;-4.78;55.99;99266.78;5037925;28;20527;-74
2024/01/10 00:30:22;;;;;;;21.27;11.63;;;;;;;-4.80;55.64;99240.63;5026513;28;20423;-74
2024/01/10 00:32:47;;;;;;;23.52;12.35;;;;;;;-4.74;55.49;99255.91;5042243;28;20501;-74
2024/01/10 00:35:13;;;;;;;20.48;14.48;;;;;;;-4.60;55.32;99252.16;5027192;28;20025;-74
2024/01/10 00:37:38;;;;;;;20.25;10.75;;;;;;;-4.62;55.06;99244.38;5043341;28;20153;-74
2024/01/10 00:40:04;;;;;;;18.98;10.80;;;;;;;-4.63;54.72;99221.72;5043793;28;20029;-74
2024/01/10 00:42:29;;;;;;;17.60;11.65;;;;;;;-4.46;54.61;99239.59;5019458;28;20033;-74
2024/01/10 00:44:55;;;;;;;19.85;9.82;;;;;;;-4.63;53.83;99219.09;5042907;28;20043;-74
2024/01/10 00:47:20;;;;;;;17.85;13.23;;;;;;;-4.27;53.46;99239.72;5041686;28;20436;-74
2024/01/10 00:49:46;;;;;;;17.50;9.63;;;;;;;-4.66;53.06;99211.44;5032422;28;20044;-74
2024/01/10 00:52:11;;;;;;;15.68;11.48;;;;;;;-4.37;53.54;99233.59;5039280;28;20057;-74
2024/01/10 00:54:36;;;;;;;18.10;12.63;;;;;;;-4.15;52.60;99243.16;5040865;28;20056;-74
2024/01/10 00:57:02;;;;;;;15.10;9.55;;;;;;;-4.33;52.74;99242.03;5038162;28;20028;-74
2024/01/10 00:59:27;;;;;;;15.52;9.13;;;;;;;-4.27;52.96;99245.00;5039931;28;20033;-74
2024/01/10 01:01:52;;;;;;;17.70;8.73;;;;;;;-4.22;52.33;99234.94;5042414;28;20068;-74
2024/01/10 01:04:18;;;;;;;16.55;10.18;;;;;;;-4.15;52.21;99226.56;5045170;28;20045;-74
2024/01/10 01:06:43;;;;;;;15.88;10.23;;;;;;;-4.07;51.92;99247.78;5033814;28;20086;-73
2024/01/10 01:09:08;;;;;;;15.93;12.23;;;;;;;-3.95;52.03;99249.41;5044133;28;20053;-74
2024/01/10 01:11:34;;;;;;;15.05;10.32;;;;;;;-4.04;51.57;99234.38;5037335;28;20024;-74
2024/01/10 01:13:59;;;;;;;15.68;9.82;;;;;;;-3.86;50.67;99253.91;5019757;28;20748;-75
2024/01/10 01:16:25;;;;;;;15.88;10.55;;;;;;;-3.80;51.03;99242.84;5041019;28;20160;-74
2024/01/10 01:18:50;;;;;;;17.23;10.00;;;;;;;-3.84;49.99;99244.06;5041854;28;20036;-75
2024/01/10 01:21:15;;;;;;;17.20;11.68;;;;;;;-3.80;50.30;99232.31;5016108;28;20482;-74
2024/01/10 01:23:41;;;;;;;17.23;12.27;;;;;;;-3.69;51.02;99250.69;5023894;28;20037;-75
2024/01/10 01:26:06;;;;;;;16.50;8.43;;;;;;;-3.83;50.51;99253.66;5015791;28;20029;-74
2024/01/10 01:28:32;;;;;;;17.65;11.20;;;;;;;-3.85;50.40;99234.53;5035298;28;20045;-74
2024/01/10 01:30:57;;;;;;;16.10;9.85;;;;;;;-3.90;50.64;99223.56;5038099;28;20029;-74
2024/01/10 01:33:22;;;;;;;15.85;8.60;;;;;;;-3.84;50.69;99246.72;5039093;28;20637;-75
2024/01/10 01:35:48;;;;;;;15.27;8.43;;;;;;;-3.87;51.01;99245.16;5026973;28;20025;-75
2024/01/10 01:38:13;;;;;;;16.25;10.45;;;;;;;-3.79;51.43;99239.25;5035067;28;20042;-74
2024/01/10 01:40:39;;;;;;;18.55;9.30;;;;;;;-3.92;51.34;99238.63;5041247;28;20106;-75
2024/01/10 01:43:24;;;;;;;16.83;8.43;;;;;;;-3.81;50.41;99230.66;5028133;28;20040;-74
2024/01/10 01:45:54;;;;;;;15.90;9.93;;;;;;;-3.86;50.02;99193.38;5040535;28;20044;-74
2024/01/10 01:48:21;;;;;;;13.93;9.32;;;;;;;-3.70;50.10;99212.19;5017191;28;20083;-74
2024/01/10 01:50:49;;;;;;;16.40;8.48;;;;;;;-3.72;50.00;99216.75;5048753;28;20020;-75
2024/01/10 01:53:14;;;;;;;17.15;8.45;;;;;;;-3.63;49.83;99223.84;5037892;28;20056;-75
2024/01/10 01:55:42;;;;;;;14.77;8.43;;;;;;;-3.63;50.09;99213.31;5044657;28;20468;-74
2024/01/10 01:58:07;;;;;;;16.75;8.85;;;;;;;-3.66;50.03;99208.31;5042624;28;20033;-75
2024/01/10 02:00:33;;;;;;;16.35;7.53;;;;;;;-3.63;49.06;99219.44;5038149;28;20503;-75
2024/01/10 02:02:59;;;;;;;17.17;9.07;;;;;;;-3.63;49.64;99198.38;5033344;28;20029;-75
2024/01/10 02:05:25;;;;;;;14.80;8.27;;;;;;;-3.62;49.95;99209.75;5042598;28;20044;-74
2024/01/10 02:07:51;;;;;;;18.60;10.18;;;;;;;-3.67;49.77;99207.50;5029383;28;20033;-75
2024/01/10 02:10:17;;;;;;;16.90;8.52;;;;;;;-3.85;50.15;99218.75;5016804;28;20401;-74
2024/01/10 02:12:43;;;;;;;15.70;10.05;;;;;;;-3.59;49.72;99210.28;5031074;28;20041;-74
2024/01/10 02:15:08;;;;;;;16.35;11.05;;;;;;;-3.55;49.72;99201.16;5022712;28;20041;-73
2024/01/10 02:17:34;;;;;;;16.92;9.95;;;;;;;-3.60;50.22;99198.13;5047618;28;20041;-73
2024/01/10 02:20:13;;;;;;;17.02;9.43;;;;;;;-3.70;50.39;99199.84;5028920;28;20157;-73
2024/01/10 02:22:39;;;;;;;13.45;10.38;;;;;;;-3.51;50.25;99209.66;5043937;28;20452;-73
2024/01/10 02:25:11;;;;;;;17.80;8.32;;;;;;;-3.83;50.29;99195.75;5044876;28;20021;-73
2024/01/10 02:27:36;;;;;;;14.88;7.90;;;;;;;-3.92;50.21;99194.72;5045388;28;20494;-73
2024/01/10 02:30:03;;;;;;;16.88;9.32;;;;;;;-3.70;50.32;99217.44;5047696;28;20052;-73
2024/01/10 02:32:29;;;;;;;12.10;6.75;;;;;;;-3.78;50.46;99214.63;5026057;28;20029;-73
2024/01/10 02:34:54;;;;;;;19.27;10.05;;;;;;;-3.60;50.22;99207.81;5044029;28;20496;-73
2024/01/10 02:37:19;;;;;;;12.70;8.68;;;;;;;-3.61;50.00;99182.44;5046123;28;20115;-73
2024/01/10 02:39:45;;;;;;;17.17;9.18;;;;;;;-3.67;50.48;99190.88;5041674;28;20556;-73
2024/01/10 02:42:11;;;;;;;16.20;9.68;;;;;;;-3.51;49.99;99202.59;5044149;28;20060;-74
2024/01/10 02:44:36;;;;;;;17.05;11.63;;;;;;;-3.36;49.81;99189.06;5031987;28;20025;-73
2024/01/10 02:47:02;;;;;;;14.57;10.70;;;;;;;-3.40;50.09;99195.56;5042953;28;20112;-72
2024/01/10 02:49:27;;;;;;;15.18;7.97;;;;;;;-3.52;50.53;99200.91;5044586;28;20037;-72
2024/01/10 02:51:52;;;;;;;14.95;9.18;;;;;;;-3.63;51.05;99197.53;5040253;28;20489;-73
2024/01/10 02:54:18;;;;;;;14.70;9.13;;;;;;;-3.74;50.84;99176.56;5047449;28;20143;-73
2024/01/10 02:56:43;;;;;;;16.85;9.13;;;;;;;-3.71;50.38;99174.50;5043177;28;20033;-73
2024/01/10 02:59:08;;;;;;;14.90;9.50;;;;;;;-3.54;50.50;99191.47;5046547;28;20043;-73
2024/01/10 03:01:34;;;;;;;14.30;9.13;;;;;;;-3.51;50.81;99196.50;5044978;28;20115;-72
2024/01/10 03:03:59;;;;;;;16.17;8.82;;;;;;;-3.60;50.86;99194.66;5048392;28;20028;-72
2024/01/10 03:06:25;;;;;;;14.80;8.85;;;;;;;-3.65;50.84;99188.94;5043019;28;20120;-73
2024/01/10 03:08:51;;;;;;;20.20;9.60;;;;;;;-3.67;51.20;99191.72;5044830;28;20036;-72
2024/01/10 03:11:16;;;;;;;16.80;9.13;;;;;;;-3.80;52.11;99195.50;5042009;28;20025;-72
2024/01/10 03:13:44;;;;;;;14.30;8.25;;;;;;;-3.89;52.01;99188.38;5039944;28;20033;-73
2024/01/10 03:16:09;;;;;;;15.65;9.15;;;;;;;-3.86;52.49;99191.59;5043994;28;20041;-72
2024/01/10 03:18:34;;;;;;;15.65;8.45;;;;;;;-3.94;52.63;99166.88;5036045;28;20032;-72
2024/01/10 03:21:00;;;;;;;16.65;8.73;;;;;;;-3.96;52.73;99174.06;5046908;28;20115;-75
2024/01/10 03:23:26;;;;;;;16.27;8.57;;;;;;;-3.85;52.61;99184.53;5016585;28;20033;-73
2024/01/10 03:25:52;;;;;;;15.85;8.45;;;;;;;-4.05;53.51;99186.22;5044818;28;20056;-71
2024/01/10 03:28:18;;;;;;;13.27;8.43;;;;;;;-4.13;53.42;99177.31;5043855;28;20466;-71
2024/01/10 03:30:44;;;;;;;14.90;9.10;;;;;;;-4.04;53.20;99181.78;5039495;28;20113;-73
2024/01/10 03:33:09;;;;;;;16.80;9.50;;;;;;;-3.99;53.00;99190.94;5022694;28;20036;-72
2024/01/10 03:35:34;;;;;;;16.55;10.50;;;;;;;-4.07;53.95;99166.25;5023658;28;20404;-72
2024/01/10 03:38:00;;;;;;;17.58;9.05;;;;;;;-4.02;53.45;99185.13;5028724;28;20036;-73
2024/01/10 03:40:25;;;;;;;14.30;10.93;;;;;;;-4.06;54.19;99173.19;5026669;28;20508;-73
2024/01/10 03:42:51;;;;;;;16.77;10.35;;;;;;;-4.18;54.10;99179.47;5028370;28;20033;-73
2024/01/10 03:45:19;;;;;;;16.23;10.40;;;;;;;-4.11;54.08;99170.13;5000308;28;20030;-73
2024/01/10 03:47:44;;;;;;;15.65;9.95;;;;;;;-4.00;54.38;99184.03;5045269;28;20035;-71
2024/01/10 03:50:09;;;;;;;15.00;10.18;;;;;;;-4.04;54.11;99173.91;5030989;28;20033;-73
2024/01/10 03:52:35;;;;;;;24.15;11.95;;;;;;;-4.27;54.46;99171.38;5040852;28;20436;-72
2024/01/10 03:55:00;;;;;;;17.58;10.32;;;;;;;-4.20;55.07;99177.78;5026156;28;20635;-72
2024/01/10 03:57:26;;;;;;;21.95;11.02;;;;;;;-4.42;54.72;99167.41;5041599;28;20044;-73
2024/01/10 03:59:51;;;;;;;20.58;12.77;;;;;;;-4.31;55.43;99159.47;5045630;28;20067;-72
2024/01/10 04:02:17;;;;;;;22.27;13.52;;;;;;;-4.04;54.93;99176.53;5048323;28;20060;-74
2024/01/10 04:04:42;;;;;;;18.13;9.80;;;;;;;-4.10;55.24;99177.88;5007786;28;20170;-73
2024/01/10 04:07:08;;;;;;;19.38;10.63;;;;;;;-4.03;54.81;99167.66;5021649;28;20400;-74
2024/01/10 04:09:34;;;;;;;18.98;13.15;;;;;;;-3.86;54.73;99173.19;5036536;28;20056;-74
2024/01/10 04:11:59;;;;;;;19.92;10.55;;;;;;;-4.10;54.62;99166.50;5037267;28;20017;-75
2024/01/10 04:14:24;;;;;;;20.48;11.57;;;;;;;-4.20;55.38;99162.03;5026504;28;20056;-76
2024/01/10 04:16:50;;;;;;;15.20;8.85;;;;;;;-4.08;55.34;99154.09;5031453;28;20061;-76
2024/01/10 04:19:16;;;;;;;19.23;11.13;;;;;;;-4.04;54.92;99139.72;5020456;28;20041;-75
2024/01/10 04:21:41;;;;;;;15.30;10.75;;;;;;;-3.87;55.04;99146.97;5022157;28;20052;-76
2024/01/10 04:24:07;;;;;;;13.90;8.82;;;;;;;-3.95;55.32;99167.84;5037714;28;20028;-75
2024/01/10 04:26:32;;;;;;;16.95;11.70;;;;;;;-3.92;55.73;99149.19;5034209;28;20128;-76
2024/01/10 04:28:57;;;;;;;18.55;12.43;;;;;;;-3.93;55.38;99171.19;5026747;28;20389;-76
2024/01/10 04:31:23;;;;;;;16.73;10.38;;;;;;;-4.21;55.34;99147.22;5043194;28;20056;-72
2024/01/10 04:33:49;;;;;;;16.65;9.85;;;;;;;-4.28;56.15;99171.50;5046895;28;20408;-75
2024/01/10 04:36:14;;;;;;;14.63;11.15;;;;;;;-3.93;56.56;99173.81;5046135;28;20024;-75
2024/01/10 04:38:39;;;;;;;17.15;10.55;;;;;;;-3.92;56.50;99176.31;5045169;28;20404;-73
2024/01/10 04:41:05;;;;;;;13.60;9.95;;;;;;;-4.10;55.62;99145.47;5044641;28;20036;-73
2024/01/10 04:43:30;;;;;;;17.52;10.18;;;;;;;-3.97;56.06;99183.78;5022655;28;20493;-74
2024/01/10 04:45:56;;;;;;;15.05;10.60;;;;;;;-4.01;56.35;99165.75;5041952;28;20020;-73
2024/01/10 04:48:21;;;;;;;16.50;9.40;;;;;;;-4.09;56.51;99169.03;5045015;28;20044;-75
2024/01/10 04:50:46;;;;;;;17.52;10.50;;;;;;;-4.18;56.21;99158.44;5038941;28;20087;-75
2024/01/10 04:53:12;;;;;;;19.95;11.85;;;;;;;-4.15;56.92;99169.53;5039000;28;20539;-75
2024/01/10 04:55:37;;;;;;;15.73;12.48;;;;;;;-4.05;56.85;99166.97;5041963;28;20025;-75
2024/01/10 04:58:02;;;;;;;16.70;9.65;;;;;;;-4.10;56.61;99190.16;5027157;28;20038;-75
2024/01/10 05:00:28;;;;;;;19.88;10.48;;;;;;;-4.22;56.65;99174.47;5024670;28;20390;-75
2024/01/10 05:02:53;;;;;;;16.73;9.77;;;;;;;-4.20;57.32;99188.31;5034697;28;20041;-76
2024/01/10 05:05:23;;;;;;;21.05;11.43;;;;;;;-4.28;57.83;99195.19;5022070;28;20029;-75
2024/01/10 05:07:49;;;;;;;19.27;10.30;;;;;;;-4.25;57.91;99189.69;5045277;28;20041;-75
2024/01/10 05:10:14;;;;;;;18.98;10.40;;;;;;;-4.33;57.95;99187.69;5029395;28;20037;-76
2024/01/10 05:12:40;;;;;;;19.75;10.60;;;;;;;-4.36;57.65;99181.81;5036278;28;20032;-75
2024/01/10 05:15:06;;;;;;;18.38;12.27;;;;;;;-4.51;57.86;99131.38;5008774;28;20125;-75
2024/01/10 05:17:31;;;;;;;21.48;10.40;;;;;;;-4.42;58.01;99179.72;5033670;28;20056;-75
2024/01/10 05:19:56;;;;;;;18.60;12.50;;;;;;;-4.31;58.52;99169.97;5021155;28;20587;-75
2024/01/10 05:22:22;;;;;;;14.80;11.68;;;;;;;-4.25;58.39;99190.47;5024245;28;20032;-75
2024/01/10 05:24:47;;;;;;;20.83;10.25;;;;;;;-4.40;57.90;99175.16;5034791;28;20067;-75
2024/01/10 05:27:13;;;;;;;15.77;9.57;;;;;;;-4.26;58.01;99173.06;5032358;28;20036;-75
2024/01/10 05:29:38;;;;;;;21.33;11.98;;;;;;;-4.26;58.55;99196.72;5015891;28;20040;-74
2024/01/10 05:32:04;;;;;;;19.10;10.95;;;;;;;-4.38;58.84;99189.84;5031879;28;20033;-73
2024/01/10 05:34:29;;;;;;;22.35;14.27;;;;;;;-4.18;58.33;99179.47;5038586;28;20025;-74
2024/01/10 05:36:54;;;;;;;23.35;17.25;;;;;;;-4.13;58.43;99199.16;5038931;28;20045;-72
2024/01/10 05:39:21;;;;;;;20.30;10.70;;;;;;;-4.39;58.64;99192.59;5040986;28;20033;-71
2024/01/10 05:41:46;;;;;;;18.50;11.50;;;;;;;-4.26;59.06;99198.50;5045825;28;20086;-71
2024/01/10 05:44:12;;;;;;;22.73;12.60;;;;;;;-4.47;59.36;99185.34;5021088;28;20021;-71
2024/01/10 05:46:37;;;;;;;17.85;13.85;;;;;;;-4.26;59.33;99170.44;5020956;28;20117;-73
2024/01/10 05:49:04;;;;;;;22.23;13.35;;;;;;;-4.18;59.54;99187.38;5019549;28;20116;-73
2024/01/10 05:51:30;;;;;;;19.58;12.02;;;;;;;-4.28;59.79;99190.75;5042479;28;20477;-73
2024/01/10 05:53:56;;;;;;;17.15;11.68;;;;;;;-4.18;59.54;99180.31;5030307;28;20029;-73
2024/01/10 05:56:21;;;;;;;18.27;10.70;;;;;;;-4.09;58.67;99179.53;5019634;28;20148;-74
2024/01/10 05:58:46;;;;;;;17.85;9.52;;;;;;;-4.27;59.24;99160.84;5030490;28;20504;-75
2024/01/10 06:01:12;;;;;;;24.23;16.90;;;;;;;-4.22;59.17;99171.00;5022071;28;20033;-72
2024/01/10 06:03:38;;;;;;;19.98;16.27;;;;;;;-3.97;59.25;99180.31;5007453;28;20437;-72
2024/01/10 06:06:04;;;;;;;17.30;12.80;;;;;;;-4.02;58.89;99170.19;5037204;28;20549;-73
2024/01/10 06:08:29;;;;;;;19.55;12.68;;;;;;;-4.15;59.35;99163.44;5017535;28;20026;-73
2024/01/10 06:10:55;;;;;;;20.63;12.30;;;;;;;-4.21;59.25;99170.88;5024470;28;20033;-73
2024/01/10 06:13:20;;;;;;;21.15;14.63;;;;;;;-4.10;59.11;99171.75;5022073;28;20506;-73
2024/01/10 06:15:45;;;;;;;21.90;16.45;;;;;;;-4.09;59.97;99173.44;5044046;28;20037;-74
2024/01/10 06:18:11;;;;;;;20.88;12.55;;;;;;;-4.36;59.74;99177.41;5030330;28;20430;-73
2024/01/10 06:20:39;;;;;;;22.48;11.60;;;;;;;-4.40;60.67;99177.78;5041737;28;20382;-72
2024/01/10 06:23:04;;;;;;;22.83;12.02;;;;;;;-4.48;61.28;99186.28;5030069;28;20052;-74
2024/01/10 06:25:29;;;;;;;20.23;11.75;;;;;;;-4.56;60.97;99186.09;5040037;28;20076;-74
2024/01/10 06:27:55;;;;;;;20.02;12.35;;;;;;;-4.50;61.60;99175.06;5042153;28;20028;-73
2024/01/10 06:30:20;;;;;;;37.47;26.13;;;;;;;-4.40;61.82;99186.50;5023560;28;20044;-72
2024/01/10 06:32:46;;;;;;;28.45;19.88;;;;;;;-4.21;60.56;99176.16;5009218;28;20030;-73
2024/01/10 06:35:11;;;;;;;35.33;19.15;;;;;;;-4.41;60.90;99190.09;5034152;28;20044;-72
2024/01/10 06:37:37;;;;;;;31.20;20.17;;;;;;;-4.35;61.59;99167.72;5035735;28;20029;-74
2024/01/10 06:40:04;;;;;;;33.85;18.52;;;;;;;-4.49;61.17;99170.66;5022847;28;20417;-73
2024/01/10 06:42:29;;;;;;;28.63;16.60;;;;;;;-4.31;61.46;99180.50;5037770;28;20627;-73
2024/01/10 06:44:55;;;;;;;24.30;17.65;;;;;;;-4.29;61.39;99173.31;5044150;28;20086;-73
2024/01/10 06:47:21;;;;;;;21.48;13.57;;;;;;;-4.26;61.25;99170.44;5032002;28;20034;-74
2024/01/10 06:49:46;;;;;;;37.40;26.35;;;;;;;-4.02;60.58;99179.84;5037870;28;20045;-73
2024/01/10 06:52:12;;;;;;;50.47;28.40;;;;;;;-4.81;60.92;99106.78;5013422;28;20107;-76
2024/01/10 06:54:37;;;;;;;32.60;18.75;;;;;;;-4.29;61.31;99189.06;5029818;28;20064;-73
2024/01/10 06:57:03;;;;;;;46.90;24.52;;;;;;;-4.46;61.29;99163.38;5046494;28;20021;-73
2024/01/10 06:59:28;;;;;;;27.80;14.93;;;;;;;-4.34;61.21;99180.72;5035297;28;20452;-73
2024/01/10 07:01:55;;;;;;;29.92;16.48;;;;;;;-4.20;61.06;99182.22;5022083;28;20029;-73
2024/01/10 07:04:23;;;;;;;39.60;23.00;;;;;;;-3.98;61.12;99187.34;5036477;28;20033;-73
2024/01/10 07:06:49;;;;;;;23.88;15.65;;;;;;;-3.97;61.37;99177.69;5036615;28;20032;-76
2024/01/10 07:09:19;;;;;;;33.60;22.17;;;;;;;-4.02;61.61;99169.34;5044443;28;20044;-73
2024/01/10 07:11:48;;;;;;;26.13;14.52;;;;;;;-4.05;61.67;99190.63;5039322;28;20040;-73
2024/01/10 07:14:14;;;;;;;22.85;14.50;;;;;;;-3.93;62.02;99174.66;5022135;28;20025;-73
2024/01/10 07:16:42;;;;;;;20.92;12.85;;;;;;;-3.90;61.61;99181.47;5026950;28;20170;-73
2024/01/10 07:19:09;;;;;;;22.77;12.57;;;;;;;-3.86;61.81;99185.50;5009399;28;20021;-73
2024/01/10 07:21:34;;;;;;;18.27;13.85;;;;;;;-3.64;61.50;99185.34;5031709;28;20069;-73
2024/01/10 07:24:00;;;;;;;20.85;11.90;;;;;;;-3.75;61.62;99194.16;5037724;28;20024;-72
2024/01/10 07:26:27;;;;;;;20.35;11.40;;;;;;;-3.90;61.55;99179.66;5042813;28;20052;-73
2024/01/10 07:28:52;;;;;;;24.75;14.27;;;;;;;-3.84;61.40;99173.88;5044768;28;20025;-72
2024/01/10 07:31:18;;;;;;;21.63;14.75;;;;;;;-3.74;61.59;99168.69;5040362;28;20084;-72
2024/01/10 07:33:43;;;;;;;21.73;15.95;;;;;;;-3.68;61.23;99178.66;5030398;28;20033;-72
2024/01/10 07:36:09;;;;;;;20.83;11.63;;;;;;;-3.89;61.42;99180.47;5037161;28;20041;-72
2024/01/10 07:38:34;;;;;;;19.90;12.18;;;;;;;-3.75;61.50;99209.09;5032111;28;20041;-73
2024/01/10 07:40:59;;;;;;;22.92;11.65;;;;;;;-3.76;61.91;99210.91;5045441;28;20056;-72
2024/01/10 07:43:26;;;;;;;23.50;11.15;;;;;;;-3.65;61.95;99216.09;5033531;28;20112;-73
2024/01/10 07:45:52;;;;;;;18.40;12.30;;;;;;;-3.61;61.41;99193.81;5011695;28;20053;-73
2024/01/10 07:48:18;;;;;;;19.25;10.52;;;;;;;-3.59;60.87;99214.72;5030449;28;20025;-72
2024/01/10 07:50:44;;;;;;;18.70;11.77;;;;;;;-3.60;61.39;99207.81;5026367;28;20037;-73
2024/01/10 07:53:10;;;;;;;21.05;11.82;;;;;;;-3.63;60.92;99194.91;5036252;28;20053;-73
2024/01/10 07:55:35;;;;;;;21.55;13.82;;;;;;;-3.31;60.79;99218.47;5022479;28;20076;-73
2024/01/10 07:58:01;;;;;;;22.02;12.05;;;;;;;-3.46;60.96;99215.34;5030685;28;20033;-73
2024/01/10 08:00:26;;;;;;;19.88;12.98;;;;;;;-3.34;61.04;99203.78;5024322;28;20073;-73
2024/01/10 08:02:52;;;;;;;21.25;11.77;;;;;;;-3.39;61.27;99221.78;5044225;28;20029;-72
2024/01/10 08:05:17;;;;;;;19.52;12.88;;;;;;;-3.18;60.31;99230.44;5031981;28;20041;-73
2024/01/10 08:07:43;;;;;;;66.75;34.33;;;;;;;-3.21;60.44;99229.88;5032258;28;20106;-73
2024/01/10 08:10:09;;;;;;;60.78;28.02;;;;;;;-3.23;60.67;99227.38;5030645;28;20037;-73
2024/01/10 08:12:35;;;;;;;36.95;17.05;;;;;;;-3.17;60.72;99224.19;5026637;28;20021;-73
2024/01/10 08:15:01;;;;;;;25.10;13.40;;;;;;;-3.24;61.21;99209.06;5031727;28;20047;-74
2024/01/10 08:17:27;;;;;;;21.50;12.40;;;;;;;-3.04;60.85;99222.19;5041617;28;20095;-73
2024/01/10 08:19:52;;;;;;;30.92;20.73;;;;;;;-2.88;60.81;99221.66;5031937;28;20033;-74
2024/01/10 08:22:19;;;;;;;37.92;18.05;;;;;;;-2.99;60.68;99225.22;5030645;28;20029;-73
2024/01/10 08:24:45;;;;;;;33.17;18.73;;;;;;;-3.05;60.98;99199.44;5018080;28;20076;-74
2024/01/10 08:27:11;;;;;;;20.58;14.88;;;;;;;-2.90;60.65;99213.06;5014321;28;20021;-73
2024/01/10 08:29:36;;;;;;;22.50;13.32;;;;;;;-2.96;60.43;99213.59;5031539;28;20484;-73
2024/01/10 08:32:03;;;;;;;22.75;11.90;;;;;;;-2.84;60.80;99229.16;5014187;28;20022;-74
2024/01/10 08:34:29;;;;;;;21.08;12.70;;;;;;;-2.78;60.57;99228.63;5029615;28;20036;-73
2024/01/10 08:36:54;;;;;;;19.20;12.05;;;;;;;-2.81;60.72;99223.63;5034559;28;20021;-73
2024/01/10 08:39:21;;;;;;;21.40;12.15;;;;;;;-2.62;60.32;99232.56;5038629;28;20091;-73
2024/01/10 08:41:50;;;;;;;22.95;13.95;;;;;;;-2.51;60.19;99229.78;5040141;28;20025;-73
2024/01/10 08:44:15;;;;;;;19.48;13.48;;;;;;;-2.58;60.59;99229.50;5020565;28;20388;-73
2024/01/10 08:46:41;;;;;;;21.05;11.98;;;;;;;-2.56;60.46;99229.34;5029926;28;20104;-73
2024/01/10 08:49:06;;;;;;;20.52;15.45;;;;;;;-2.36;60.32;99233.69;5039128;28;20137;-73
2024/01/10 08:51:31;;;;;;;22.25;12.88;;;;;;;-2.39;60.08;99233.97;5032483;28;20018;-73
2024/01/10 08:53:57;;;;;;;23.85;14.05;;;;;;;-2.37;60.05;99242.56;5009205;28;20039;-73
2024/01/10 08:56:23;;;;;;;21.77;13.45;;;;;;;-2.34;59.70;99231.75;4999276;28;20068;-73
2024/01/10 08:58:49;;;;;;;18.90;11.43;;;;;;;-2.18;60.05;99247.88;5038761;28;20044;-73
2024/01/10 09:01:14;;;;;;;21.35;15.43;;;;;;;-1.93;59.44;99251.75;5016531;28;20413;-73
2024/01/10 09:03:40;;;;;;;21.85;12.90;;;;;;;-2.02;59.73;99248.13;5029345;28;20040;-74
2024/01/10 09:06:07;;;;;;;22.67;12.23;;;;;;;-1.98;59.07;99254.00;5039261;28;20032;-74
2024/01/10 09:08:33;;;;;;;21.88;13.73;;;;;;;-2.04;59.17;99239.53;5018320;28;20029;-73
2024/01/10 09:10:58;;;;;;;20.92;13.15;;;;;;;-1.97;59.04;99237.16;5043635;28;20477;-73
2024/01/10 09:13:23;;;;;;;16.95;14.35;;;;;;;-1.99;58.53;99210.94;5040124;28;20760;-73
2024/01/10 09:15:49;;;;;;;18.95;12.55;;;;;;;-1.72;58.66;99261.19;5045067;28;20117;-73
2024/01/10 09:18:14;;;;;;;26.98;15.93;;;;;;;-1.86;58.86;99224.66;5031810;28;20042;-73
2024/01/10 09:20:40;;;;;;;19.42;15.35;;;;;;;-1.51;58.60;99248.63;5027047;28;20066;-73
2024/01/10 09:23:05;;;;;;;26.33;15.05;;;;;;;-1.69;58.81;99229.22;5036498;28;20470;-73
2024/01/10 09:25:30;;;;;;;24.83;16.95;;;;;;;-1.46;58.58;99251.69;5030799;28;20025;-73
2024/01/10 09:27:56;;;;;;;20.27;11.98;;;;;;;-1.52;58.50;99254.06;5029366;28;20052;-73
2024/01/10 09:30:21;;;;;;;19.65;15.35;;;;;;;-1.44;58.36;99239.16;5042508;28;20021;-73
2024/01/10 09:32:47;;;;;;;20.52;14.40;;;;;;;-1.42;58.18;99242.50;5039440;28;20032;-72
2024/01/10 09:35:12;;;;;;;19.15;12.20;;;;;;;-1.38;58.41;99260.69;5038449;28;20051;-74
2024/01/10 09:37:38;;;;;;;21.65;12.35;;;;;;;-1.54;58.82;99227.78;5029296;28;20492;-74
2024/01/10 09:40:06;;;;;;;20.25;12.07;;;;;;;-1.41;58.92;99244.16;5035030;28;20090;-74
2024/01/10 09:42:33;;;;;;;21.13;12.38;;;;;;;-1.32;58.90;99246.91;5037437;28;20474;-74
2024/01/10 09:44:58;;;;;;;22.10;12.57;;;;;;;-1.19;58.34;99268.59;5034539;28;20025;-74
2024/01/10 09:47:24;;;;;;;21.80;12.25;;;;;;;-1.30;58.30;99242.31;5029073;28;20099;-74
2024/01/10 09:49:50;;;;;;;19.33;14.93;;;;;;;-1.09;58.44;99248.22;5040074;28;20061;-74
2024/01/10 09:52:41;;;;;;;18.65;14.60;;;;;;;-1.06;57.78;99254.06;5019823;28;20057;-74
2024/01/10 09:55:08;;;;;;;21.52;13.40;;;;;;;-1.12;58.06;99248.53;5014742;28;20040;-74
2024/01/10 09:57:36;;;;;;;17.25;11.70;;;;;;;-1.13;58.36;99252.13;5031688;28;20478;-74
2024/01/10 10:00:04;;;;;;;23.90;12.98;;;;;;;-0.90;57.76;99269.28;5014655;28;20133;-74
2024/01/10 10:02:33;;;;;;;20.60;14.35;;;;;;;-0.93;57.58;99261.63;5044052;28;20040;-73
2024/01/10 10:05:04;;;;;;;20.65;14.48;;;;;;;-0.75;57.05;99263.38;5039767;28;20473;-73
2024/01/10 10:07:29;;;;;;;21.08;13.60;;;;;;;-0.84;57.12;99268.72;5014512;28;20409;-74
2024/01/10 10:09:56;;;;;;;20.33;13.25;;;;;;;-0.88;57.57;99257.59;5031208;28;20033;-73
2024/01/10 10:12:24;;;;;;;19.40;12.40;;;;;;;-0.86;57.55;99266.22;5043907;28;20456;-74
2024/01/10 10:14:49;;;;;;;18.85;14.35;;;;;;;-0.58;56.29;99267.03;5016519;28;20021;-74
2024/01/10 10:17:15;;;;;;;19.33;15.15;;;;;;;-0.73;56.63;99239.44;5042820;28;20040;-74
2024/01/10 10:19:41;;;;;;;18.48;14.98;;;;;;;-0.65;56.11;99242.16;5039633;28;20056;-74
2024/01/10 10:22:10;;;;;;;22.25;13.60;;;;;;;-0.77;56.62;99235.44;5038261;28;20066;-74
2024/01/10 10:24:35;;;;;;;20.50;16.15;;;;;;;-0.43;56.57;99272.66;5044308;28;20054;-73
2024/01/10 10:27:01;;;;;;;19.83;13.00;;;;;;;-0.49;56.74;99276.72;5042862;28;20044;-74
2024/01/10 10:29:26;;;;;;;17.95;14.27;;;;;;;-0.47;56.25;99261.56;5038915;28;20033;-73
2024/01/10 10:31:51;;;;;;;20.42;15.10;;;;;;;-0.52;56.25;99242.66;5038278;28;20029;-74
2024/01/10 10:34:23;;;;;;;19.20;15.07;;;;;;;-0.39;56.60;99259.00;5041176;28;20481;-74
2024/01/10 10:36:48;;;;;;;21.08;15.32;;;;;;;-0.32;56.25;99270.66;5036879;28;20036;-74
2024/01/10 10:39:17;;;;;;;21.88;14.70;;;;;;;-0.27;56.85;99276.31;5015899;28;20033;-74
2024/01/10 10:41:43;;;;;;;19.33;15.90;;;;;;;-0.27;56.58;99273.69;5030909;28;20030;-74
2024/01/10 10:44:09;;;;;;;22.10;16.45;;;;;;;-0.35;56.26;99260.34;5034047;28;20389;-74
2024/01/10 10:46:36;;;;;;;20.52;15.43;;;;;;;-0.37;56.42;99257.03;5034429;28;20402;-74
2024/01/10 10:49:06;;;;;;;18.42;14.65;;;;;;;-0.27;56.25;99263.09;5019738;28;20022;-74
2024/01/10 10:51:36;;;;;;;20.08;15.00;;;;;;;-0.36;56.31;99242.81;5037431;28;20116;-73
2024/01/10 10:54:04;;;;;;;21.10;14.65;;;;;;;-0.19;56.54;99259.69;5044027;28;20045;-74
2024/01/10 10:56:34;;;;;;;19.05;14.85;;;;;;;-0.10;56.32;99280.81;5015508;28;20506;-74
2024/01/10 10:59:01;;;;;;;18.45;13.82;;;;;;;-0.07;56.17;99279.69;5027830;28;20044;-74
2024/01/10 11:01:27;;;;;;;22.73;13.48;;;;;;;-0.36;55.67;99236.69;5042534;28;20040;-74
2024/01/10 11:03:52;;;;;;;19.30;15.18;;;;;;;-0.05;55.74;99257.34;5038655;28;20038;-73
2024/01/10 11:06:18;;;;;;;20.48;14.98;;;;;;;-0.06;55.58;99250.41;5021766;28;20025;-73
2024/01/10 11:08:53;;;;;;;20.73;15.45;;;;;;;0.11;55.80;99261.13;5036892;28;20037;-74
2024/01/10 11:11:34;;;;;;;20.48;15.13;;;;;;;0.13;55.89;99253.88;5018954;28;20064;-73
2024/01/10 11:14:11;;;;;;;20.67;15.38;;;;;;;0.08;55.56;99246.38;5040420;28;20033;-73